createdAt,value
2022-08-14T00:02:20.040Z,99855.75
2022-08-14T00:05:06.988Z,99851.34
2022-08-14T00:07:47.265Z,99850.06
2022-08-14T00:10:51.363Z,99838.47
2022-08-14T00:13:35.610Z,99829.66
2022-08-14T00:16:41.627Z,99830.91
2022-08-14T00:19:29.973Z,99813.34
2022-08-14T00:22:15.545Z,99815.34
2022-08-14T00:25:22.951Z,99808.22
2022-08-14T00:28:10.976Z,99802.25
2022-08-14T00:31:04.694Z,99803.56
2022-08-14T00:33:53.028Z,99810.78
2022-08-14T00:36:49.229Z,99816.84
2022-08-14T00:39:36.987Z,99811.63
2022-08-14T00:42:55.034Z,99822.91
2022-08-14T00:45:24.419Z,99814.13
2022-08-14T00:48:10.902Z,99824.25
2022-08-14T00:50:53.457Z,99814.25
2022-08-14T00:53:43.762Z,99821.06
2022-08-14T00:56:25.826Z,99817.13
2022-08-14T00:59:17.950Z,99815.97
2022-08-14T01:02:00.806Z,99816.78
2022-08-14T01:04:54.231Z,99819.25
2022-08-14T01:07:50.408Z,99824.00
2022-08-14T01:10:51.353Z,99827.66
2022-08-14T01:13:42.992Z,99837.69
2022-08-14T01:16:27.381Z,99836.94
2022-08-14T01:19:36.882Z,99838.84
2022-08-14T01:22:20.058Z,99836.00
2022-08-14T01:25:07.858Z,99842.41
2022-08-14T01:27:56.948Z,99829.53
2022-08-14T01:30:44.939Z,99832.84
2022-08-14T01:33:29.177Z,99830.84
2022-08-14T01:36:21.151Z,99831.38
2022-08-14T01:39:12.818Z,99831.22
2022-08-14T01:42:03.902Z,99825.69
2022-08-14T01:44:58.667Z,99834.97
2022-08-14T01:47:45.879Z,99840.53
2022-08-14T01:50:29.013Z,99833.34
2022-08-14T01:53:16.908Z,99827.31
2022-08-14T01:55:58.773Z,99840.97
2022-08-14T01:58:57.176Z,99835.28
2022-08-14T02:01:41.995Z,99829.34
2022-08-14T02:04:56.617Z,99827.75
2022-08-14T02:07:53.785Z,99830.97
2022-08-14T02:10:48.881Z,99824.16
2022-08-14T02:13:37.201Z,99826.59
2022-08-14T02:16:22.440Z,99819.81
2022-08-14T02:19:12.865Z,99823.84
2022-08-14T02:22:03.359Z,99816.25
2022-08-14T02:24:45.303Z,99807.41
2022-08-14T02:28:23.733Z,99818.56
2022-08-14T02:30:38.315Z,99811.81
2022-08-14T02:33:25.838Z,99814.63
2022-08-14T02:37:02.921Z,99809.47
2022-08-14T02:39:17.844Z,99809.44
2022-08-14T02:42:06.801Z,99807.84
2022-08-14T02:44:59.801Z,99811.88
2022-08-14T02:47:39.924Z,99815.50
2022-08-14T02:50:34.836Z,99808.75
2022-08-14T03:12:34.347Z,99800.19
2022-08-14T03:15:21.409Z,99804.13
2022-08-14T03:18:09.342Z,99803.28
2022-08-14T03:20:58.381Z,99799.22
2022-08-14T03:23:39.159Z,99811.19
2022-08-14T03:26:32.339Z,99801.13
2022-08-14T03:29:14.475Z,99799.06
2022-08-14T03:32:02.333Z,99806.63
2022-08-14T03:34:48.410Z,99805.34
2022-08-14T03:39:11.817Z,99810.91
2022-08-14T03:40:43.602Z,99807.22
2022-08-14T03:43:34.320Z,99798.31
2022-08-14T03:46:52.715Z,99807.50
2022-08-14T03:49:29.483Z,99813.50
2022-08-14T03:52:28.145Z,99812.63
2022-08-14T03:55:14.431Z,99809.41
2022-08-14T03:58:02.330Z,99807.41
2022-08-14T04:00:46.311Z,99810.59
2022-08-14T04:03:33.347Z,99804.53
2022-08-14T04:06:21.135Z,99806.84
2022-08-14T04:09:08.319Z,99800.50
2022-08-14T04:11:49.426Z,99795.41
2022-08-14T04:14:37.477Z,99797.47
2022-08-14T04:17:25.278Z,99803.44
2022-08-14T04:20:14.289Z,99797.97
2022-08-14T04:23:18.506Z,99804.00
2022-08-14T04:26:14.629Z,99808.00
2022-08-14T04:29:06.998Z,99810.50
2022-08-14T04:32:58.633Z,99813.41
2022-08-14T04:35:07.678Z,99810.88
2022-08-14T04:38:37.280Z,99817.91
2022-08-14T04:41:33.959Z,99815.38
2022-08-14T04:44:26.562Z,99823.09
2022-08-14T04:48:01.264Z,99818.00
2022-08-14T04:50:58.360Z,99815.53
2022-08-14T04:53:43.002Z,99820.22
2022-08-14T04:56:31.475Z,99812.34
2022-08-14T04:59:21.282Z,99807.06
2022-08-14T05:02:01.740Z,99815.09
2022-08-14T05:04:57.079Z,99814.22
2022-08-14T05:07:46.347Z,99810.50
2022-08-14T05:10:34.243Z,99799.59
2022-08-14T05:13:24.572Z,99797.81
2022-08-14T05:16:20.252Z,99796.69
2022-08-14T05:19:18.938Z,99796.94
2022-08-14T05:22:17.495Z,99789.91
2022-08-14T05:25:07.259Z,99798.25
2022-08-14T05:27:47.339Z,99796.19
2022-08-14T05:30:34.244Z,99784.28
2022-08-14T05:33:21.254Z,99787.84
2022-08-14T05:36:04.976Z,99785.97
2022-08-14T05:38:57.238Z,99786.59
2022-08-14T05:41:52.322Z,99782.31
2022-08-14T05:44:41.216Z,99781.19
2022-08-14T05:47:28.542Z,99783.97
2022-08-14T05:50:26.254Z,99778.94
2022-08-14T05:53:23.231Z,99778.06
2022-08-14T05:56:03.617Z,99784.38
2022-08-14T05:58:50.225Z,99778.38
2022-08-14T06:01:31.554Z,99785.31
2022-08-14T06:04:19.198Z,99778.53
2022-08-14T06:06:59.689Z,99784.34
2022-08-14T06:09:50.943Z,99790.63
2022-08-14T06:12:56.569Z,99787.94
2022-08-14T06:15:37.186Z,99783.19
2022-08-14T06:18:18.131Z,99784.53
2022-08-14T06:21:05.183Z,99787.28
2022-08-14T06:24:00.222Z,99789.06
2022-08-14T06:26:40.428Z,99774.84
2022-08-14T06:29:33.368Z,99776.34
2022-08-14T06:32:36.593Z,99761.88
2022-08-14T06:35:23.169Z,99769.94
2022-08-14T06:38:06.284Z,99766.69
2022-08-14T06:40:54.183Z,99768.28
2022-08-14T06:43:41.177Z,99766.63
2022-08-14T06:46:37.026Z,99768.00
2022-08-14T06:49:24.186Z,99769.13
2022-08-14T06:52:15.054Z,99774.53
2022-08-14T06:55:04.171Z,99773.25
2022-08-14T06:57:53.191Z,99769.25
2022-08-14T07:00:35.262Z,99757.88
2022-08-14T07:03:41.175Z,99771.84
2022-08-14T07:06:46.435Z,99766.50
2022-08-14T07:09:43.897Z,99766.66
2022-08-14T07:12:56.316Z,99768.47
2022-08-14T07:15:45.141Z,99771.25
2022-08-14T07:18:36.117Z,99775.19
2022-08-14T07:21:23.130Z,99774.38
2022-08-14T07:24:22.127Z,99775.03
2022-08-14T07:27:17.232Z,99776.06
2022-08-14T07:29:57.167Z,99773.59
2022-08-14T07:32:44.125Z,99769.88
2022-08-14T07:35:24.280Z,99765.31
2022-08-14T07:38:29.688Z,99765.28
2022-08-14T07:41:24.166Z,99771.19
2022-08-14T07:44:31.987Z,99772.78
2022-08-14T07:47:18.111Z,99763.06
2022-08-14T07:50:11.569Z,99758.59
2022-08-14T07:53:03.110Z,99761.66
2022-08-14T07:56:09.062Z,99749.28
2022-08-14T07:58:52.584Z,99750.19
2022-08-14T08:01:33.577Z,99750.31
2022-08-14T08:04:25.034Z,99754.22
2022-08-14T08:07:05.829Z,99748.16
2022-08-14T08:09:58.113Z,99753.88
2022-08-14T08:12:46.313Z,99746.94
2022-08-14T08:15:28.249Z,99748.97
2022-08-14T08:18:27.703Z,99747.88
2022-08-14T08:21:09.405Z,99740.75
2022-08-14T08:24:01.077Z,99753.72
2022-08-14T08:26:50.377Z,99747.41
2022-08-14T08:29:38.110Z,99736.91
2022-08-14T08:32:22.561Z,99735.44
2022-08-14T08:35:24.049Z,99735.53
2022-08-14T08:39:15.408Z,99735.13
2022-08-14T08:41:35.086Z,99747.38
2022-08-14T08:44:30.060Z,99730.63
2022-08-14T08:47:19.061Z,99738.72
2022-08-14T08:50:00.352Z,99732.53
2022-08-14T08:52:55.057Z,99728.41
2022-08-14T08:55:42.349Z,99727.81
2022-08-14T08:58:29.032Z,99710.91
2022-08-14T09:01:09.196Z,99726.69
2022-08-14T09:04:14.894Z,99726.84
2022-08-14T09:07:09.519Z,99716.25
2022-08-14T09:10:01.112Z,99714.78
2022-08-14T09:12:51.473Z,99707.97
2022-08-14T09:15:42.363Z,99710.09
2022-08-14T09:18:27.272Z,99710.59
2022-08-14T09:21:16.147Z,99707.16
2022-08-14T09:24:29.537Z,99704.25
2022-08-14T09:27:03.643Z,99701.69
2022-08-14T09:29:54.462Z,99697.63
2022-08-14T09:33:12.611Z,99693.66
2022-08-14T09:36:18.504Z,99692.50
2022-08-14T09:39:39.184Z,99684.16
2022-08-14T09:42:53.151Z,99686.13
2022-08-14T09:45:53.443Z,99679.72
2022-08-14T09:48:41.029Z,99676.00
2022-08-14T09:51:25.946Z,99679.84
2022-08-14T09:54:23.670Z,99689.84
2022-08-14T09:57:08.948Z,99674.59
2022-08-14T10:00:00.981Z,99677.19
2022-08-14T10:02:52.711Z,99675.13
2022-08-14T10:05:48.961Z,99672.44
2022-08-14T10:08:57.028Z,99686.75
2022-08-14T10:11:43.432Z,99677.19
2022-08-14T10:14:37.299Z,99684.25
2022-08-14T10:17:23.973Z,99686.72
2022-08-14T10:20:39.387Z,99683.41
2022-08-14T10:23:33.759Z,99691.94
2022-08-14T10:26:28.193Z,99682.28
2022-08-14T10:29:25.945Z,99682.59
2022-08-14T10:32:18.233Z,99677.03
2022-08-14T10:35:31.112Z,99687.06
2022-08-14T10:38:12.425Z,99681.41
2022-08-14T10:41:02.273Z,99682.75
2022-08-14T10:43:44.816Z,99684.66
2022-08-14T10:47:39.257Z,99681.66
2022-08-14T10:49:42.939Z,99690.66
2022-08-14T10:52:45.213Z,99685.13
2022-08-14T10:55:39.460Z,99670.41
2022-08-14T10:58:41.916Z,99672.16
2022-08-14T11:01:41.548Z,99668.78
2022-08-14T11:04:37.944Z,99661.75
2022-08-14T11:07:25.937Z,99653.94
2022-08-14T11:10:14.959Z,99651.13
2022-08-14T11:13:11.909Z,99640.31
2022-08-14T11:15:59.917Z,99652.09
2022-08-14T11:18:40.669Z,99660.19
2022-08-14T11:21:30.303Z,99650.38
2022-08-14T11:24:50.554Z,99653.63
2022-08-14T11:27:33.321Z,99643.25
2022-08-14T11:30:49.832Z,99646.22
2022-08-14T11:33:19.888Z,99655.78
2022-08-14T11:36:18.411Z,99655.28
2022-08-14T11:38:59.028Z,99665.22
2022-08-14T11:41:55.885Z,99660.47
2022-08-14T11:44:45.910Z,99664.63
2022-08-14T11:47:43.691Z,99659.16
2022-08-14T11:50:38.906Z,99641.56
2022-08-14T11:53:41.926Z,99637.47
2022-08-14T11:56:25.753Z,99639.72
2022-08-14T11:59:26.285Z,99634.84
2022-08-14T12:03:00.782Z,99633.25
2022-08-14T12:05:42.855Z,99614.47
2022-08-14T12:08:30.866Z,99615.13
2022-08-14T12:11:26.839Z,99618.22
2022-08-14T12:14:08.879Z,99621.28
2022-08-14T12:17:16.849Z,99623.91
2022-08-14T12:20:06.729Z,99620.41
2022-08-14T12:22:58.850Z,99617.44
2022-08-14T12:25:46.814Z,99626.03
2022-08-14T12:29:00.173Z,99613.69
2022-08-14T12:31:44.931Z,99613.94
2022-08-14T12:34:33.861Z,99628.50
2022-08-14T12:37:15.326Z,99630.53
2022-08-14T12:40:01.935Z,99634.66
2022-08-14T12:42:44.793Z,99627.16
2022-08-14T12:45:46.804Z,99631.81
2022-08-14T12:48:31.948Z,99627.38
2022-08-14T12:51:32.782Z,99632.78
2022-08-14T12:54:27.223Z,99630.63
2022-08-14T12:57:22.786Z,99619.31
2022-08-14T13:00:23.070Z,99635.03
2022-08-14T13:03:04.806Z,99611.31
2022-08-14T13:05:44.884Z,99620.25
2022-08-14T13:08:33.472Z,99620.91
2022-08-14T13:11:28.791Z,99617.88
2022-08-14T13:14:17.345Z,99621.16
2022-08-14T13:17:10.786Z,99620.69
2022-08-14T13:19:55.048Z,99630.50
2022-08-14T13:22:42.741Z,99629.16
2022-08-14T13:25:34.611Z,99626.00
2022-08-14T13:28:33.844Z,99617.50
2022-08-14T13:31:23.962Z,99616.34
2022-08-14T13:34:16.765Z,99600.84
2022-08-14T13:37:04.408Z,99613.63
2022-08-14T13:39:56.382Z,99614.38
2022-08-14T13:42:49.848Z,99597.09
2022-08-14T13:45:59.990Z,99611.50
2022-08-14T13:48:39.745Z,99604.22
2022-08-14T13:51:24.464Z,99606.31
2022-08-14T13:54:12.758Z,99611.41
2022-08-14T13:56:53.857Z,99614.22
2022-08-14T13:59:41.765Z,99615.34
2022-08-14T14:02:31.884Z,99606.31
2022-08-14T14:05:21.045Z,99608.78
2022-08-14T14:08:18.512Z,99612.44
2022-08-14T14:11:05.747Z,99614.56
2022-08-14T14:13:52.857Z,99613.47
2022-08-14T14:16:33.714Z,99615.25
2022-08-14T14:19:18.633Z,99612.16
2022-08-14T14:22:05.740Z,99611.41
2022-08-14T14:24:50.165Z,99616.69
2022-08-14T14:27:41.561Z,99616.59
2022-08-14T14:30:52.435Z,99616.41
2022-08-14T14:33:49.504Z,99628.72
2022-08-14T14:36:35.701Z,99635.53
2022-08-14T14:39:23.766Z,99627.31
2022-08-14T14:42:06.265Z,99630.88
2022-08-14T14:44:59.732Z,99637.75
2022-08-14T14:47:39.865Z,99627.84
2022-08-14T14:50:28.751Z,99629.84
2022-08-14T14:53:12.808Z,99621.72
2022-08-14T14:56:47.151Z,99623.88
2022-08-14T15:14:54.808Z,99647.09
2022-08-14T15:17:41.046Z,99652.91
2022-08-14T15:20:30.314Z,99648.38
2022-08-14T15:23:18.227Z,99645.16
2022-08-14T15:26:09.218Z,99631.38
2022-08-14T15:29:02.775Z,99626.41
2022-08-14T15:31:54.025Z,99623.00
2022-08-14T15:34:46.051Z,99629.63
2022-08-14T15:37:42.486Z,99622.97
2022-08-14T15:40:29.208Z,99603.53
2022-08-14T15:43:14.765Z,99603.44
2022-08-14T15:46:03.212Z,99608.25
2022-08-14T15:48:43.946Z,99609.69
2022-08-14T15:51:31.236Z,99609.63
2022-08-14T15:54:11.619Z,99618.09
2022-08-14T15:57:12.166Z,99631.28
2022-08-14T16:00:11.337Z,99639.31
2022-08-14T16:03:09.626Z,99638.25
2022-08-14T16:05:56.198Z,99637.81
2022-08-14T16:08:38.207Z,99647.88
2022-08-14T16:11:26.148Z,99652.75
2022-08-14T16:14:20.584Z,99650.81
2022-08-14T16:17:08.165Z,99656.19
2022-08-14T16:19:49.352Z,99657.00
2022-08-14T16:22:59.376Z,99659.81
2022-08-14T16:25:47.108Z,99662.81
2022-08-14T16:28:41.163Z,99670.94
2022-08-14T16:31:36.246Z,99673.66
2022-08-14T16:34:44.470Z,99685.41
2022-08-14T16:37:34.004Z,99681.94
2022-08-14T16:40:14.579Z,99677.72
2022-08-14T16:43:12.994Z,99673.28
2022-08-14T16:46:00.129Z,99676.19
2022-08-14T16:48:55.394Z,99664.47
2022-08-14T16:51:52.815Z,99663.41
2022-08-14T16:54:44.424Z,99669.22
2022-08-14T16:57:26.270Z,99677.03
2022-08-14T17:00:19.758Z,99666.84
2022-08-14T17:03:17.097Z,99665.72
2022-08-14T17:06:04.087Z,99671.66
2022-08-14T17:09:13.114Z,99664.22
2022-08-14T17:12:07.549Z,99664.50
2022-08-14T17:14:59.408Z,99669.34
2022-08-14T17:17:45.078Z,99657.34
2022-08-14T17:21:00.390Z,99655.84
2022-08-14T17:23:45.077Z,99659.50
2022-08-14T17:26:46.100Z,99665.56
2022-08-14T17:32:57.130Z,99670.84
2022-08-14T17:35:58.160Z,99676.03
2022-08-14T17:39:06.640Z,99680.59
2022-08-14T17:42:13.340Z,99691.81
2022-08-14T17:47:55.085Z,99696.00
2022-08-14T17:51:00.259Z,99699.88
2022-08-14T17:53:52.814Z,99691.91
2022-08-14T17:56:36.225Z,99684.72
2022-08-14T17:59:26.071Z,99680.44
2022-08-14T18:02:10.553Z,99685.75
2022-08-14T18:05:08.188Z,99696.22
2022-08-14T18:07:59.781Z,99699.03
2022-08-14T18:10:59.057Z,99695.84
2022-08-14T18:13:54.032Z,99699.53
2022-08-14T18:16:42.023Z,99700.69
2022-08-14T18:19:23.136Z,99695.84
2022-08-14T18:22:30.990Z,99701.41
2022-08-14T18:25:17.425Z,99687.88
2022-08-14T18:28:16.114Z,99695.13
2022-08-14T18:31:28.022Z,99702.00
2022-08-14T18:34:30.623Z,99699.25
2022-08-14T18:37:27.002Z,99698.06
2022-08-14T18:40:40.231Z,99709.75
2022-08-14T18:44:00.990Z,99707.41
2022-08-14T18:47:20.015Z,99712.25
2022-08-14T18:50:26.284Z,99725.50
2022-08-14T18:53:15.196Z,99724.69
2022-08-14T18:56:09.999Z,99729.75
2022-08-14T18:58:59.763Z,99729.06
2022-08-14T19:01:51.764Z,99723.88
2022-08-14T19:04:51.016Z,99724.69
2022-08-14T19:07:37.993Z,99726.69
2022-08-14T19:10:19.059Z,99719.47
2022-08-14T19:13:13.259Z,99722.69
2022-08-14T19:16:26.211Z,99715.38
2022-08-14T19:19:14.991Z,99721.47
2022-08-14T19:22:12.717Z,99718.41
2022-08-14T19:25:06.982Z,99717.59
2022-08-14T19:27:51.300Z,99718.41
2022-08-14T19:30:42.963Z,99715.75
2022-08-14T19:33:51.959Z,99723.75
2022-08-14T19:37:05.661Z,99718.16
2022-08-14T19:40:15.425Z,99714.25
2022-08-14T19:43:01.229Z,99716.28
2022-08-14T19:45:51.963Z,99718.28
2022-08-14T19:48:56.727Z,99721.16
2022-08-14T19:51:43.951Z,99721.19
2022-08-14T19:54:34.799Z,99724.00
2022-08-14T19:57:29.924Z,99727.22
2022-08-14T20:00:28.013Z,99726.03
2022-08-14T20:03:24.022Z,99727.69
2022-08-14T20:06:05.942Z,99735.88
2022-08-14T20:11:00.995Z,99736.31
2022-08-14T20:12:04.579Z,99725.59
2022-08-14T20:14:51.914Z,99727.28
2022-08-14T20:17:40.334Z,99722.94
2022-08-14T20:20:32.557Z,99734.31
2022-08-14T20:23:16.504Z,99734.00
2022-08-14T20:26:02.890Z,99715.91
2022-08-14T20:28:51.386Z,99710.75
2022-08-14T20:31:38.896Z,99710.00
2022-08-14T20:34:35.496Z,99702.38
2022-08-14T20:37:22.736Z,99699.56
2022-08-14T20:40:24.249Z,99709.59
2022-08-14T20:43:29.894Z,99712.81
2022-08-14T20:46:29.389Z,99714.81
2022-08-14T20:49:25.896Z,99713.16
2022-08-14T20:52:19.890Z,99711.16
2022-08-14T20:55:07.897Z,99719.66
2022-08-14T20:57:58.903Z,99706.47
2022-08-14T21:00:57.904Z,99703.66
2022-08-14T21:03:56.452Z,99708.50
2022-08-14T21:07:22.899Z,99712.16
2022-08-14T21:10:05.791Z,99716.19
2022-08-14T21:13:25.665Z,99717.84
2022-08-14T21:16:02.952Z,99719.84
2022-08-14T21:19:01.893Z,99725.84
2022-08-14T21:21:42.532Z,99725.94
2022-08-14T21:24:39.635Z,99717.09
2022-08-14T21:27:37.190Z,99719.13
2022-08-14T21:30:46.731Z,99726.41
2022-08-14T21:33:31.857Z,99720.78
2022-08-14T21:36:22.069Z,99715.25
2022-08-14T21:39:08.898Z,99716.03
2022-08-14T21:42:01.828Z,99721.28
2022-08-14T21:44:51.824Z,99702.47
2022-08-14T21:47:33.217Z,99710.91
2022-08-14T21:51:00.126Z,99718.06
2022-08-14T21:53:25.135Z,99714.91
2022-08-14T21:56:12.797Z,99704.06
2022-08-14T21:58:56.634Z,99700.47
2022-08-14T22:02:01.064Z,99695.25
2022-08-14T22:04:44.918Z,99698.13
2022-08-14T22:07:38.888Z,99694.97
2022-08-14T22:10:24.272Z,99696.94
2022-08-14T22:13:11.537Z,99698.56
2022-08-14T22:16:02.359Z,99700.59
2022-08-14T22:18:43.170Z,99693.84
2022-08-14T22:21:34.824Z,99694.25
2022-08-14T22:24:25.874Z,99703.09
2022-08-14T22:27:17.889Z,99707.09
2022-08-14T22:30:12.050Z,99704.31
2022-08-14T22:32:57.589Z,99704.25
2022-08-14T22:35:45.736Z,99706.19
2022-08-14T22:38:36.505Z,99711.78
2022-08-14T22:41:27.767Z,99705.75
2022-08-14T22:44:41.766Z,99718.56
2022-08-14T22:47:25.041Z,99713.69
2022-08-14T22:50:31.597Z,99707.31
2022-08-14T22:53:13.038Z,99712.94
2022-08-14T22:55:59.741Z,99707.63
2022-08-14T22:58:41.352Z,99714.50
2022-08-14T23:01:57.025Z,99719.78
2022-08-14T23:04:53.958Z,99715.75
2022-08-14T23:08:59.123Z,99714.22
2022-08-14T23:10:42.834Z,99708.22
2022-08-14T23:13:31.726Z,99701.81
2022-08-14T23:16:20.601Z,99707.84
2022-08-14T23:19:08.712Z,99701.81
2022-08-14T23:21:50.694Z,99701.78
2022-08-14T23:24:42.728Z,99712.66
2022-08-14T23:27:31.597Z,99704.59
2022-08-14T23:30:34.633Z,99706.66
2022-08-14T23:33:26.322Z,99699.44
2022-08-14T23:36:32.400Z,99695.03
2022-08-14T23:39:24.629Z,99692.25
2022-08-14T23:42:11.732Z,99687.50
2022-08-14T23:44:58.693Z,99691.47
2022-08-14T23:47:51.306Z,99695.91
2022-08-14T23:50:38.851Z,99707.47
2022-08-14T23:53:48.748Z,99711.13
2022-08-14T23:56:39.657Z,99720.75
2022-08-14T23:59:30.236Z,99719.16
